sensor_id;sensor_type;location;lat;lon;timestamp;P1;durP1;ratioP1;P2;durP2;ratioP2
16654;SDS011;8441;51.344;7.022;2023-05-21T00:01:52;0.10;;;0.10;;
16654;SDS011;8441;51.344;7.022;2023-05-21T00:04:19;0.20;;;0.20;;
16654;SDS011;8441;51.344;7.022;2023-05-21T00:06:47;0.10;;;0.10;;
16654;SDS011;8441;51.344;7.022;2023-05-21T00:09:15;0.10;;;0.10;;
16654;SDS011;8441;51.344;7.022;2023-05-21T00:11:44;0.20;;;0.20;;
16654;SDS011;8441;51.344;7.022;2023-05-21T00:14:11;0.10;;;0.10;;
16654;SDS011;8441;51.344;7.022;2023-05-21T00:16:38;0.20;;;0.20;;
16654;SDS011;8441;51.344;7.022;2023-05-21T00:19:05;0.10;;;0.10;;
16654;SDS011;8441;51.344;7.022;2023-05-21T00:21:34;0.10;;;0.10;;
16654;SDS011;8441;51.344;7.022;2023-05-21T00:24:02;0.20;;;0.20;;
16654;SDS011;8441;51.344;7.022;2023-05-21T00:26:29;0.17;;;0.17;;
16654;SDS011;8441;51.344;7.022;2023-05-21T00:28:58;0.20;;;0.20;;
16654;SDS011;8441;51.344;7.022;2023-05-21T00:31:25;0.20;;;0.20;;
16654;SDS011;8441;51.344;7.022;2023-05-21T00:33:52;0.20;;;0.20;;
16654;SDS011;8441;51.344;7.022;2023-05-21T00:36:20;0.17;;;0.17;;
16654;SDS011;8441;51.344;7.022;2023-05-21T00:38:48;0.10;;;0.10;;
16654;SDS011;8441;51.344;7.022;2023-05-21T00:41:16;0.17;;;0.17;;
16654;SDS011;8441;51.344;7.022;2023-05-21T00:43:43;0.20;;;0.20;;
16654;SDS011;8441;51.344;7.022;2023-05-21T00:46:14;0.10;;;0.10;;
16654;SDS011;8441;51.344;7.022;2023-05-21T00:48:45;0.13;;;0.13;;
16654;SDS011;8441;51.344;7.022;2023-05-21T00:51:13;0.20;;;0.20;;
16654;SDS011;8441;51.344;7.022;2023-05-21T00:53:41;0.10;;;0.10;;
16654;SDS011;8441;51.344;7.022;2023-05-21T00:56:10;0.10;;;0.10;;
16654;SDS011;8441;51.344;7.022;2023-05-21T00:58:37;0.20;;;0.20;;
16654;SDS011;8441;51.344;7.022;2023-05-21T01:01:05;0.20;;;0.20;;
16654;SDS011;8441;51.344;7.022;2023-05-21T01:03:39;0.10;;;0.10;;
16654;SDS011;8441;51.344;7.022;2023-05-21T01:06:07;0.20;;;0.20;;
16654;SDS011;8441;51.344;7.022;2023-05-21T01:08:34;0.20;;;0.20;;
16654;SDS011;8441;51.344;7.022;2023-05-21T01:11:03;0.10;;;0.10;;
16654;SDS011;8441;51.344;7.022;2023-05-21T01:13:32;0.20;;;0.20;;
16654;SDS011;8441;51.344;7.022;2023-05-21T01:16:03;0.10;;;0.10;;
16654;SDS011;8441;51.344;7.022;2023-05-21T01:18:32;0.10;;;0.10;;
16654;SDS011;8441;51.344;7.022;2023-05-21T01:21:03;0.20;;;0.20;;
16654;SDS011;8441;51.344;7.022;2023-05-21T01:23:32;0.15;;;0.15;;
16654;SDS011;8441;51.344;7.022;2023-05-21T01:26:00;0.10;;;0.10;;
16654;SDS011;8441;51.344;7.022;2023-05-21T01:28:27;0.20;;;0.20;;
16654;SDS011;8441;51.344;7.022;2023-05-21T01:30:54;0.20;;;0.20;;
16654;SDS011;8441;51.344;7.022;2023-05-21T01:33:27;0.20;;;0.20;;
16654;SDS011;8441;51.344;7.022;2023-05-21T01:35:59;0.15;;;0.15;;
16654;SDS011;8441;51.344;7.022;2023-05-21T01:38:36;0.10;;;0.10;;
16654;SDS011;8441;51.344;7.022;2023-05-21T01:41:07;0.20;;;0.20;;
16654;SDS011;8441;51.344;7.022;2023-05-21T01:43:37;0.20;;;0.20;;
16654;SDS011;8441;51.344;7.022;2023-05-21T01:46:06;0.10;;;0.10;;
16654;SDS011;8441;51.344;7.022;2023-05-21T01:48:37;0.20;;;0.20;;
16654;SDS011;8441;51.344;7.022;2023-05-21T01:51:05;0.10;;;0.10;;
16654;SDS011;8441;51.344;7.022;2023-05-21T01:53:32;0.10;;;0.10;;
16654;SDS011;8441;51.344;7.022;2023-05-21T01:56:00;0.20;;;0.20;;
16654;SDS011;8441;51.344;7.022;2023-05-21T01:58:28;0.20;;;0.20;;
16654;SDS011;8441;51.344;7.022;2023-05-21T02:00:55;0.20;;;0.20;;
16654;SDS011;8441;51.344;7.022;2023-05-21T02:03:23;0.10;;;0.10;;
16654;SDS011;8441;51.344;7.022;2023-05-21T02:05:52;0.20;;;0.20;;
16654;SDS011;8441;51.344;7.022;2023-05-21T02:08:19;0.10;;;0.10;;
16654;SDS011;8441;51.344;7.022;2023-05-21T02:10:47;0.20;;;0.20;;
16654;SDS011;8441;51.344;7.022;2023-05-21T02:13:16;0.20;;;0.20;;
16654;SDS011;8441;51.344;7.022;2023-05-21T02:15:44;0.20;;;0.20;;
16654;SDS011;8441;51.344;7.022;2023-05-21T02:18:11;0.20;;;0.20;;
16654;SDS011;8441;51.344;7.022;2023-05-21T02:20:40;0.20;;;0.20;;
16654;SDS011;8441;51.344;7.022;2023-05-21T02:23:08;0.20;;;0.20;;
16654;SDS011;8441;51.344;7.022;2023-05-21T02:25:35;0.20;;;0.20;;
16654;SDS011;8441;51.344;7.022;2023-05-21T02:28:03;0.20;;;0.20;;
16654;SDS011;8441;51.344;7.022;2023-05-21T02:30:32;0.20;;;0.20;;
16654;SDS011;8441;51.344;7.022;2023-05-21T02:33:00;0.20;;;0.20;;
16654;SDS011;8441;51.344;7.022;2023-05-21T02:35:27;0.10;;;0.10;;
16654;SDS011;8441;51.344;7.022;2023-05-21T02:37:54;0.20;;;0.20;;
16654;SDS011;8441;51.344;7.022;2023-05-21T02:40:24;0.20;;;0.20;;
16654;SDS011;8441;51.344;7.022;2023-05-21T02:42:51;0.20;;;0.20;;
16654;SDS011;8441;51.344;7.022;2023-05-21T02:45:18;0.20;;;0.20;;
16654;SDS011;8441;51.344;7.022;2023-05-21T02:47:46;0.20;;;0.20;;
16654;SDS011;8441;51.344;7.022;2023-05-21T02:50:13;0.20;;;0.20;;
16654;SDS011;8441;51.344;7.022;2023-05-21T02:52:41;0.20;;;0.20;;
16654;SDS011;8441;51.344;7.022;2023-05-21T02:55:08;0.13;;;0.13;;
16654;SDS011;8441;51.344;7.022;2023-05-21T02:57:35;0.20;;;0.20;;
16654;SDS011;8441;51.344;7.022;2023-05-21T03:00:03;0.20;;;0.20;;
16654;SDS011;8441;51.344;7.022;2023-05-21T03:02:33;0.20;;;0.20;;
16654;SDS011;8441;51.344;7.022;2023-05-21T03:05:02;0.20;;;0.20;;
16654;SDS011;8441;51.344;7.022;2023-05-21T03:07:29;0.20;;;0.20;;
16654;SDS011;8441;51.344;7.022;2023-05-21T03:09:57;0.20;;;0.20;;
16654;SDS011;8441;51.344;7.022;2023-05-21T03:12:24;0.17;;;0.17;;
16654;SDS011;8441;51.344;7.022;2023-05-21T03:14:52;0.20;;;0.20;;
16654;SDS011;8441;51.344;7.022;2023-05-21T03:17:20;0.10;;;0.10;;
16654;SDS011;8441;51.344;7.022;2023-05-21T03:19:47;0.20;;;0.20;;
16654;SDS011;8441;51.344;7.022;2023-05-21T03:22:16;0.20;;;0.20;;
16654;SDS011;8441;51.344;7.022;2023-05-21T03:24:44;0.20;;;0.20;;
16654;SDS011;8441;51.344;7.022;2023-05-21T03:27:11;0.20;;;0.20;;
16654;SDS011;8441;51.344;7.022;2023-05-21T03:29:38;0.17;;;0.17;;
16654;SDS011;8441;51.344;7.022;2023-05-21T03:32:07;0.20;;;0.20;;
16654;SDS011;8441;51.344;7.022;2023-05-21T03:34:34;0.17;;;0.17;;
16654;SDS011;8441;51.344;7.022;2023-05-21T03:37:01;0.20;;;0.20;;
16654;SDS011;8441;51.344;7.022;2023-05-21T03:39:30;0.30;;;0.30;;
16654;SDS011;8441;51.344;7.022;2023-05-21T03:41:57;0.20;;;0.20;;
16654;SDS011;8441;51.344;7.022;2023-05-21T03:44:24;0.10;;;0.10;;
16654;SDS011;8441;51.344;7.022;2023-05-21T03:46:52;0.20;;;0.20;;
16654;SDS011;8441;51.344;7.022;2023-05-21T03:49:19;0.10;;;0.10;;
16654;SDS011;8441;51.344;7.022;2023-05-21T03:51:46;0.20;;;0.20;;
16654;SDS011;8441;51.344;7.022;2023-05-21T03:54:13;0.20;;;0.20;;
16654;SDS011;8441;51.344;7.022;2023-05-21T03:56:42;0.20;;;0.20;;
16654;SDS011;8441;51.344;7.022;2023-05-21T03:59:09;0.10;;;0.10;;
16654;SDS011;8441;51.344;7.022;2023-05-21T04:01:36;0.20;;;0.20;;
16654;SDS011;8441;51.344;7.022;2023-05-21T04:04:04;0.10;;;0.10;;
16654;SDS011;8441;51.344;7.022;2023-05-21T04:06:31;0.20;;;0.20;;
16654;SDS011;8441;51.344;7.022;2023-05-21T04:08:58;0.20;;;0.20;;
16654;SDS011;8441;51.344;7.022;2023-05-21T04:11:26;0.10;;;0.10;;
16654;SDS011;8441;51.344;7.022;2023-05-21T04:13:54;0.20;;;0.20;;
16654;SDS011;8441;51.344;7.022;2023-05-21T04:16:21;0.10;;;0.10;;
16654;SDS011;8441;51.344;7.022;2023-05-21T04:18:48;0.30;;;0.30;;
16654;SDS011;8441;51.344;7.022;2023-05-21T04:21:16;0.20;;;0.20;;
16654;SDS011;8441;51.344;7.022;2023-05-21T04:23:43;0.10;;;0.10;;
16654;SDS011;8441;51.344;7.022;2023-05-21T04:26:10;0.20;;;0.20;;
16654;SDS011;8441;51.344;7.022;2023-05-21T04:28:40;0.20;;;0.20;;
16654;SDS011;8441;51.344;7.022;2023-05-21T04:31:09;0.10;;;0.10;;
16654;SDS011;8441;51.344;7.022;2023-05-21T04:33:37;0.20;;;0.20;;
16654;SDS011;8441;51.344;7.022;2023-05-21T04:36:06;0.20;;;0.20;;
16654;SDS011;8441;51.344;7.022;2023-05-21T04:38:35;0.10;;;0.10;;
16654;SDS011;8441;51.344;7.022;2023-05-21T04:41:04;0.10;;;0.10;;
16654;SDS011;8441;51.344;7.022;2023-05-21T04:43:31;0.20;;;0.20;;
16654;SDS011;8441;51.344;7.022;2023-05-21T04:45:58;0.20;;;0.20;;
16654;SDS011;8441;51.344;7.022;2023-05-21T04:48:26;0.10;;;0.10;;
16654;SDS011;8441;51.344;7.022;2023-05-21T04:50:54;0.20;;;0.20;;
16654;SDS011;8441;51.344;7.022;2023-05-21T04:53:21;0.10;;;0.10;;
16654;SDS011;8441;51.344;7.022;2023-05-21T04:55:50;0.20;;;0.20;;
16654;SDS011;8441;51.344;7.022;2023-05-21T04:58:17;0.20;;;0.20;;
16654;SDS011;8441;51.344;7.022;2023-05-21T05:00:44;0.20;;;0.20;;
16654;SDS011;8441;51.344;7.022;2023-05-21T05:03:14;0.10;;;0.10;;
16654;SDS011;8441;51.344;7.022;2023-05-21T05:05:43;0.20;;;0.20;;
16654;SDS011;8441;51.344;7.022;2023-05-21T05:08:10;0.20;;;0.20;;
16654;SDS011;8441;51.344;7.022;2023-05-21T05:10:37;0.20;;;0.20;;
16654;SDS011;8441;51.344;7.022;2023-05-21T05:13:05;0.20;;;0.20;;
16654;SDS011;8441;51.344;7.022;2023-05-21T05:15:32;0.20;;;0.20;;
16654;SDS011;8441;51.344;7.022;2023-05-21T05:17:59;0.20;;;0.20;;
16654;SDS011;8441;51.344;7.022;2023-05-21T05:20:26;0.20;;;0.20;;
16654;SDS011;8441;51.344;7.022;2023-05-21T05:22:55;0.20;;;0.20;;
16654;SDS011;8441;51.344;7.022;2023-05-21T05:25:22;0.20;;;0.20;;
16654;SDS011;8441;51.344;7.022;2023-05-21T05:27:49;0.20;;;0.20;;
16654;SDS011;8441;51.344;7.022;2023-05-21T05:30:16;0.20;;;0.20;;
16654;SDS011;8441;51.344;7.022;2023-05-21T05:32:43;0.15;;;0.15;;
16654;SDS011;8441;51.344;7.022;2023-05-21T05:35:11;0.10;;;0.10;;
16654;SDS011;8441;51.344;7.022;2023-05-21T05:37:38;0.20;;;0.20;;
16654;SDS011;8441;51.344;7.022;2023-05-21T05:40:07;0.10;;;0.10;;
16654;SDS011;8441;51.344;7.022;2023-05-21T05:42:35;0.10;;;0.10;;
16654;SDS011;8441;51.344;7.022;2023-05-21T05:45:02;0.10;;;0.10;;
16654;SDS011;8441;51.344;7.022;2023-05-21T05:47:30;0.15;;;0.15;;
16654;SDS011;8441;51.344;7.022;2023-05-21T05:49:57;0.10;;;0.10;;
16654;SDS011;8441;51.344;7.022;2023-05-21T05:52:24;0.10;;;0.10;;
16654;SDS011;8441;51.344;7.022;2023-05-21T05:54:51;0.20;;;0.20;;
16654;SDS011;8441;51.344;7.022;2023-05-21T05:57:20;0.10;;;0.10;;
16654;SDS011;8441;51.344;7.022;2023-05-21T05:59:47;0.15;;;0.15;;
16654;SDS011;8441;51.344;7.022;2023-05-21T06:02:14;0.10;;;0.10;;
16654;SDS011;8441;51.344;7.022;2023-05-21T06:04:42;0.10;;;0.10;;
16654;SDS011;8441;51.344;7.022;2023-05-21T06:07:09;0.10;;;0.10;;
16654;SDS011;8441;51.344;7.022;2023-05-21T06:09:36;0.20;;;0.20;;
16654;SDS011;8441;51.344;7.022;2023-05-21T06:12:04;0.10;;;0.10;;
16654;SDS011;8441;51.344;7.022;2023-05-21T06:14:33;0.10;;;0.10;;
16654;SDS011;8441;51.344;7.022;2023-05-21T06:17:00;0.20;;;0.20;;
16654;SDS011;8441;51.344;7.022;2023-05-21T06:19:27;0.13;;;0.13;;
16654;SDS011;8441;51.344;7.022;2023-05-21T06:21:55;0.15;;;0.15;;
16654;SDS011;8441;51.344;7.022;2023-05-21T06:24:22;0.20;;;0.20;;
16654;SDS011;8441;51.344;7.022;2023-05-21T06:26:49;0.15;;;0.15;;
16654;SDS011;8441;51.344;7.022;2023-05-21T06:29:16;0.10;;;0.10;;
16654;SDS011;8441;51.344;7.022;2023-05-21T06:31:45;0.10;;;0.10;;
16654;SDS011;8441;51.344;7.022;2023-05-21T06:34:12;0.17;;;0.17;;
16654;SDS011;8441;51.344;7.022;2023-05-21T06:36:39;0.10;;;0.10;;
16654;SDS011;8441;51.344;7.022;2023-05-21T06:39:06;0.20;;;0.20;;
16654;SDS011;8441;51.344;7.022;2023-05-21T06:41:34;0.10;;;0.10;;
16654;SDS011;8441;51.344;7.022;2023-05-21T06:44:01;0.10;;;0.10;;
16654;SDS011;8441;51.344;7.022;2023-05-21T06:46:29;0.10;;;0.10;;
16654;SDS011;8441;51.344;7.022;2023-05-21T06:48:58;0.20;;;0.20;;
16654;SDS011;8441;51.344;7.022;2023-05-21T06:51:25;0.10;;;0.10;;
16654;SDS011;8441;51.344;7.022;2023-05-21T06:53:52;0.20;;;0.20;;
16654;SDS011;8441;51.344;7.022;2023-05-21T06:56:20;0.10;;;0.10;;
16654;SDS011;8441;51.344;7.022;2023-05-21T06:58:47;0.10;;;0.10;;
16654;SDS011;8441;51.344;7.022;2023-05-21T07:01:14;0.10;;;0.10;;
16654;SDS011;8441;51.344;7.022;2023-05-21T07:03:41;0.10;;;0.10;;
16654;SDS011;8441;51.344;7.022;2023-05-21T07:06:10;0.10;;;0.10;;
16654;SDS011;8441;51.344;7.022;2023-05-21T07:08:37;0.10;;;0.10;;
16654;SDS011;8441;51.344;7.022;2023-05-21T07:11:04;0.10;;;0.10;;
16654;SDS011;8441;51.344;7.022;2023-05-21T07:13:31;0.10;;;0.10;;
16654;SDS011;8441;51.344;7.022;2023-05-21T07:16:00;0.10;;;0.10;;
16654;SDS011;8441;51.344;7.022;2023-05-21T07:18:27;0.13;;;0.13;;
16654;SDS011;8441;51.344;7.022;2023-05-21T07:20:54;0.20;;;0.20;;
16654;SDS011;8441;51.344;7.022;2023-05-21T07:23:23;0.10;;;0.10;;
16654;SDS011;8441;51.344;7.022;2023-05-21T07:25:51;0.10;;;0.10;;
16654;SDS011;8441;51.344;7.022;2023-05-21T07:28:18;0.10;;;0.10;;
16654;SDS011;8441;51.344;7.022;2023-05-21T07:30:46;0.10;;;0.10;;
16654;SDS011;8441;51.344;7.022;2023-05-21T07:33:13;0.10;;;0.10;;
16654;SDS011;8441;51.344;7.022;2023-05-21T07:35:40;0.10;;;0.10;;
16654;SDS011;8441;51.344;7.022;2023-05-21T07:38:07;0.10;;;0.10;;
16654;SDS011;8441;51.344;7.022;2023-05-21T07:40:36;0.10;;;0.10;;
16654;SDS011;8441;51.344;7.022;2023-05-21T07:43:03;0.10;;;0.10;;
16654;SDS011;8441;51.344;7.022;2023-05-21T07:45:30;0.10;;;0.10;;
16654;SDS011;8441;51.344;7.022;2023-05-21T07:47:57;0.10;;;0.10;;
16654;SDS011;8441;51.344;7.022;2023-05-21T07:50:25;0.10;;;0.10;;
16654;SDS011;8441;51.344;7.022;2023-05-21T07:52:52;0.10;;;0.10;;
16654;SDS011;8441;51.344;7.022;2023-05-21T07:55:19;0.10;;;0.10;;
16654;SDS011;8441;51.344;7.022;2023-05-21T07:57:48;0.10;;;0.10;;
16654;SDS011;8441;51.344;7.022;2023-05-21T08:00:16;0.20;;;0.20;;
16654;SDS011;8441;51.344;7.022;2023-05-21T08:02:44;0.10;;;0.10;;
16654;SDS011;8441;51.344;7.022;2023-05-21T08:05:11;0.10;;;0.10;;
16654;SDS011;8441;51.344;7.022;2023-05-21T08:07:40;0.10;;;0.10;;
16654;SDS011;8441;51.344;7.022;2023-05-21T08:10:07;0.10;;;0.10;;
16654;SDS011;8441;51.344;7.022;2023-05-21T08:12:35;0.10;;;0.10;;
16654;SDS011;8441;51.344;7.022;2023-05-21T08:15:04;0.10;;;0.10;;
16654;SDS011;8441;51.344;7.022;2023-05-21T08:17:32;0.10;;;0.10;;
16654;SDS011;8441;51.344;7.022;2023-05-21T08:19:59;0.10;;;0.10;;
16654;SDS011;8441;51.344;7.022;2023-05-21T08:22:26;0.10;;;0.10;;
16654;SDS011;8441;51.344;7.022;2023-05-21T08:24:53;0.10;;;0.10;;
16654;SDS011;8441;51.344;7.022;2023-05-21T08:27:20;0.10;;;0.10;;
16654;SDS011;8441;51.344;7.022;2023-05-21T08:29:47;0.10;;;0.10;;
16654;SDS011;8441;51.344;7.022;2023-05-21T08:32:16;0.10;;;0.10;;
16654;SDS011;8441;51.344;7.022;2023-05-21T08:34:43;0.10;;;0.10;;
16654;SDS011;8441;51.344;7.022;2023-05-21T08:37:10;0.10;;;0.10;;
16654;SDS011;8441;51.344;7.022;2023-05-21T08:39:38;0.10;;;0.10;;
16654;SDS011;8441;51.344;7.022;2023-05-21T08:42:08;0.10;;;0.10;;
16654;SDS011;8441;51.344;7.022;2023-05-21T08:44:40;0.10;;;0.10;;
16654;SDS011;8441;51.344;7.022;2023-05-21T08:47:13;0.10;;;0.10;;
16654;SDS011;8441;51.344;7.022;2023-05-21T08:49:44;0.10;;;0.10;;
16654;SDS011;8441;51.344;7.022;2023-05-21T08:52:13;0.10;;;0.10;;
16654;SDS011;8441;51.344;7.022;2023-05-21T08:54:41;0.10;;;0.10;;
16654;SDS011;8441;51.344;7.022;2023-05-21T08:57:09;0.00;;;0.00;;
16654;SDS011;8441;51.344;7.022;2023-05-21T08:59:39;0.00;;;0.00;;
16654;SDS011;8441;51.344;7.022;2023-05-21T09:02:09;0.10;;;0.10;;
16654;SDS011;8441;51.344;7.022;2023-05-21T09:04:39;0.10;;;0.10;;
16654;SDS011;8441;51.344;7.022;2023-05-21T09:07:07;0.10;;;0.10;;
16654;SDS011;8441;51.344;7.022;2023-05-21T09:09:37;0.10;;;0.10;;
16654;SDS011;8441;51.344;7.022;2023-05-21T09:12:09;0.10;;;0.10;;
16654;SDS011;8441;51.344;7.022;2023-05-21T09:14:36;0.10;;;0.10;;
16654;SDS011;8441;51.344;7.022;2023-05-21T09:17:04;0.10;;;0.10;;
16654;SDS011;8441;51.344;7.022;2023-05-21T09:19:31;0.10;;;0.10;;
16654;SDS011;8441;51.344;7.022;2023-05-21T09:22:01;0.10;;;0.10;;
16654;SDS011;8441;51.344;7.022;2023-05-21T09:24:29;0.10;;;0.10;;
16654;SDS011;8441;51.344;7.022;2023-05-21T09:26:57;0.00;;;0.00;;
16654;SDS011;8441;51.344;7.022;2023-05-21T09:29:25;0.10;;;0.10;;
16654;SDS011;8441;51.344;7.022;2023-05-21T09:31:52;0.05;;;0.05;;
16654;SDS011;8441;51.344;7.022;2023-05-21T09:34:19;0.10;;;0.10;;
16654;SDS011;8441;51.344;7.022;2023-05-21T09:36:50;0.10;;;0.10;;
16654;SDS011;8441;51.344;7.022;2023-05-21T09:39:27;0.10;;;0.10;;
16654;SDS011;8441;51.344;7.022;2023-05-21T09:41:55;0.10;;;0.10;;
16654;SDS011;8441;51.344;7.022;2023-05-21T09:44:22;0.10;;;0.10;;
16654;SDS011;8441;51.344;7.022;2023-05-21T09:46:55;0.00;;;0.00;;
16654;SDS011;8441;51.344;7.022;2023-05-21T09:49:23;0.10;;;0.10;;
16654;SDS011;8441;51.344;7.022;2023-05-21T09:51:53;0.10;;;0.10;;
16654;SDS011;8441;51.344;7.022;2023-05-21T09:54:21;0.10;;;0.10;;
16654;SDS011;8441;51.344;7.022;2023-05-21T09:56:51;0.03;;;0.03;;
16654;SDS011;8441;51.344;7.022;2023-05-21T09:59:18;0.10;;;0.10;;
16654;SDS011;8441;51.344;7.022;2023-05-21T10:01:46;0.05;;;0.05;;
16654;SDS011;8441;51.344;7.022;2023-05-21T10:04:16;0.10;;;0.10;;
16654;SDS011;8441;51.344;7.022;2023-05-21T10:06:45;0.10;;;0.10;;
16654;SDS011;8441;51.344;7.022;2023-05-21T10:09:14;0.10;;;0.10;;
16654;SDS011;8441;51.344;7.022;2023-05-21T10:11:44;0.10;;;0.10;;
16654;SDS011;8441;51.344;7.022;2023-05-21T10:14:18;0.10;;;0.10;;
16654;SDS011;8441;51.344;7.022;2023-05-21T10:16:46;0.10;;;0.10;;
16654;SDS011;8441;51.344;7.022;2023-05-21T10:19:14;0.00;;;0.00;;
16654;SDS011;8441;51.344;7.022;2023-05-21T10:21:42;0.10;;;0.10;;
16654;SDS011;8441;51.344;7.022;2023-05-21T10:24:11;0.10;;;0.10;;
16654;SDS011;8441;51.344;7.022;2023-05-21T10:26:39;0.10;;;0.10;;
16654;SDS011;8441;51.344;7.022;2023-05-21T10:29:07;0.10;;;0.10;;
16654;SDS011;8441;51.344;7.022;2023-05-21T10:31:36;0.10;;;0.10;;
16654;SDS011;8441;51.344;7.022;2023-05-21T10:34:04;0.00;;;0.00;;
16654;SDS011;8441;51.344;7.022;2023-05-21T10:36:32;0.10;;;0.10;;
16654;SDS011;8441;51.344;7.022;2023-05-21T10:39:00;0.00;;;0.00;;
16654;SDS011;8441;51.344;7.022;2023-05-21T10:41:30;0.10;;;0.10;;
16654;SDS011;8441;51.344;7.022;2023-05-21T10:44:06;0.10;;;0.10;;
16654;SDS011;8441;51.344;7.022;2023-05-21T10:52:42;0.03;;;0.03;;
16654;SDS011;8441;51.344;7.022;2023-05-21T10:55:21;0.10;;;0.10;;
16654;SDS011;8441;51.344;7.022;2023-05-21T10:58:09;0.10;;;0.10;;
16654;SDS011;8441;51.344;7.022;2023-05-21T11:01:02;0.00;;;0.00;;
16654;SDS011;8441;51.344;7.022;2023-05-21T11:03:32;0.00;;;0.00;;
16654;SDS011;8441;51.344;7.022;2023-05-21T11:06:01;0.00;;;0.00;;
16654;SDS011;8441;51.344;7.022;2023-05-21T11:08:30;0.10;;;0.10;;
16654;SDS011;8441;51.344;7.022;2023-05-21T11:11:00;0.10;;;0.10;;
16654;SDS011;8441;51.344;7.022;2023-05-21T11:13:28;0.00;;;0.00;;
16654;SDS011;8441;51.344;7.022;2023-05-21T11:16:13;0.00;;;0.00;;
16654;SDS011;8441;51.344;7.022;2023-05-21T11:18:57;0.00;;;0.00;;
16654;SDS011;8441;51.344;7.022;2023-05-21T11:21:27;0.05;;;0.05;;
16654;SDS011;8441;51.344;7.022;2023-05-21T11:23:57;0.10;;;0.10;;
16654;SDS011;8441;51.344;7.022;2023-05-21T11:26:27;0.00;;;0.00;;
16654;SDS011;8441;51.344;7.022;2023-05-21T11:29:08;0.00;;;0.00;;
16654;SDS011;8441;51.344;7.022;2023-05-21T11:31:36;0.00;;;0.00;;
16654;SDS011;8441;51.344;7.022;2023-05-21T11:34:14;0.00;;;0.00;;
16654;SDS011;8441;51.344;7.022;2023-05-21T11:36:44;0.00;;;0.00;;
16654;SDS011;8441;51.344;7.022;2023-05-21T11:39:13;0.00;;;0.00;;
16654;SDS011;8441;51.344;7.022;2023-05-21T11:41:49;0.00;;;0.00;;
16654;SDS011;8441;51.344;7.022;2023-05-21T11:44:17;0.08;;;0.08;;
16654;SDS011;8441;51.344;7.022;2023-05-21T11:46:47;0.10;;;0.10;;
16654;SDS011;8441;51.344;7.022;2023-05-21T11:49:15;0.00;;;0.00;;
16654;SDS011;8441;51.344;7.022;2023-05-21T11:51:43;0.00;;;0.00;;
16654;SDS011;8441;51.344;7.022;2023-05-21T11:54:10;0.00;;;0.00;;
16654;SDS011;8441;51.344;7.022;2023-05-21T11:56:38;0.10;;;0.10;;
16654;SDS011;8441;51.344;7.022;2023-05-21T11:59:12;0.00;;;0.00;;
16654;SDS011;8441;51.344;7.022;2023-05-21T12:01:41;0.00;;;0.00;;
16654;SDS011;8441;51.344;7.022;2023-05-21T12:04:09;0.00;;;0.00;;
16654;SDS011;8441;51.344;7.022;2023-05-21T12:06:38;0.00;;;0.00;;
16654;SDS011;8441;51.344;7.022;2023-05-21T12:09:08;0.00;;;0.00;;
16654;SDS011;8441;51.344;7.022;2023-05-21T12:11:36;0.10;;;0.10;;
16654;SDS011;8441;51.344;7.022;2023-05-21T12:14:08;0.10;;;0.10;;
16654;SDS011;8441;51.344;7.022;2023-05-21T12:16:36;0.10;;;0.10;;
16654;SDS011;8441;51.344;7.022;2023-05-21T12:19:05;0.10;;;0.10;;
16654;SDS011;8441;51.344;7.022;2023-05-21T12:21:32;0.10;;;0.10;;
16654;SDS011;8441;51.344;7.022;2023-05-21T12:24:02;0.10;;;0.10;;
16654;SDS011;8441;51.344;7.022;2023-05-21T12:26:29;0.00;;;0.00;;
16654;SDS011;8441;51.344;7.022;2023-05-21T12:28:59;0.10;;;0.10;;
16654;SDS011;8441;51.344;7.022;2023-05-21T12:31:28;0.10;;;0.10;;
16654;SDS011;8441;51.344;7.022;2023-05-21T12:33:56;0.00;;;0.00;;
16654;SDS011;8441;51.344;7.022;2023-05-21T12:36:26;0.00;;;0.00;;
16654;SDS011;8441;51.344;7.022;2023-05-21T12:38:56;0.00;;;0.00;;
16654;SDS011;8441;51.344;7.022;2023-05-21T12:41:25;0.05;;;0.05;;
16654;SDS011;8441;51.344;7.022;2023-05-21T12:43:52;0.00;;;0.00;;
16654;SDS011;8441;51.344;7.022;2023-05-21T12:46:19;0.00;;;0.00;;
16654;SDS011;8441;51.344;7.022;2023-05-21T12:48:47;0.10;;;0.10;;
16654;SDS011;8441;51.344;7.022;2023-05-21T12:51:15;0.00;;;0.00;;
16654;SDS011;8441;51.344;7.022;2023-05-21T12:53:43;0.00;;;0.00;;
16654;SDS011;8441;51.344;7.022;2023-05-21T12:56:10;0.00;;;0.00;;
16654;SDS011;8441;51.344;7.022;2023-05-21T12:58:40;0.03;;;0.03;;
16654;SDS011;8441;51.344;7.022;2023-05-21T13:01:08;0.00;;;0.00;;
16654;SDS011;8441;51.344;7.022;2023-05-21T13:03:36;0.00;;;0.00;;
16654;SDS011;8441;51.344;7.022;2023-05-21T13:06:06;0.00;;;0.00;;
16654;SDS011;8441;51.344;7.022;2023-05-21T13:08:34;0.00;;;0.00;;
16654;SDS011;8441;51.344;7.022;2023-05-21T13:11:03;0.00;;;0.00;;
16654;SDS011;8441;51.344;7.022;2023-05-21T13:13:30;0.10;;;0.10;;
16654;SDS011;8441;51.344;7.022;2023-05-21T13:15:59;0.00;;;0.00;;
16654;SDS011;8441;51.344;7.022;2023-05-21T13:18:26;0.08;;;0.08;;
16654;SDS011;8441;51.344;7.022;2023-05-21T13:20:54;0.10;;;0.10;;
16654;SDS011;8441;51.344;7.022;2023-05-21T13:23:21;0.00;;;0.00;;
16654;SDS011;8441;51.344;7.022;2023-05-21T13:25:48;0.10;;;0.10;;
16654;SDS011;8441;51.344;7.022;2023-05-21T13:28:15;0.00;;;0.00;;
16654;SDS011;8441;51.344;7.022;2023-05-21T13:30:43;0.00;;;0.00;;
16654;SDS011;8441;51.344;7.022;2023-05-21T13:33:11;0.08;;;0.08;;
16654;SDS011;8441;51.344;7.022;2023-05-21T13:35:38;0.00;;;0.00;;
16654;SDS011;8441;51.344;7.022;2023-05-21T13:38:05;0.00;;;0.00;;
16654;SDS011;8441;51.344;7.022;2023-05-21T13:40:33;0.10;;;0.10;;
16654;SDS011;8441;51.344;7.022;2023-05-21T13:43:00;0.00;;;0.00;;
16654;SDS011;8441;51.344;7.022;2023-05-21T13:45:27;0.08;;;0.08;;
16654;SDS011;8441;51.344;7.022;2023-05-21T13:47:54;0.00;;;0.00;;
16654;SDS011;8441;51.344;7.022;2023-05-21T13:50:23;0.00;;;0.00;;
16654;SDS011;8441;51.344;7.022;2023-05-21T13:52:51;0.00;;;0.00;;
16654;SDS011;8441;51.344;7.022;2023-05-21T13:55:18;0.00;;;0.00;;
16654;SDS011;8441;51.344;7.022;2023-05-21T13:57:45;0.10;;;0.10;;
16654;SDS011;8441;51.344;7.022;2023-05-21T14:00:12;0.10;;;0.10;;
16654;SDS011;8441;51.344;7.022;2023-05-21T14:02:40;0.00;;;0.00;;
16654;SDS011;8441;51.344;7.022;2023-05-21T14:05:08;0.00;;;0.00;;
16654;SDS011;8441;51.344;7.022;2023-05-21T14:07:38;0.00;;;0.00;;
16654;SDS011;8441;51.344;7.022;2023-05-21T14:10:06;0.00;;;0.00;;
16654;SDS011;8441;51.344;7.022;2023-05-21T14:12:34;0.10;;;0.10;;
16654;SDS011;8441;51.344;7.022;2023-05-21T14:15:02;0.10;;;0.10;;
16654;SDS011;8441;51.344;7.022;2023-05-21T14:17:30;0.10;;;0.10;;
16654;SDS011;8441;51.344;7.022;2023-05-21T14:19:57;0.10;;;0.10;;
16654;SDS011;8441;51.344;7.022;2023-05-21T14:22:25;0.00;;;0.00;;
16654;SDS011;8441;51.344;7.022;2023-05-21T14:24:53;0.00;;;0.00;;
16654;SDS011;8441;51.344;7.022;2023-05-21T14:27:21;0.00;;;0.00;;
16654;SDS011;8441;51.344;7.022;2023-05-21T14:29:48;0.00;;;0.00;;
16654;SDS011;8441;51.344;7.022;2023-05-21T14:32:15;0.00;;;0.00;;
16654;SDS011;8441;51.344;7.022;2023-05-21T14:34:43;0.00;;;0.00;;
16654;SDS011;8441;51.344;7.022;2023-05-21T14:37:10;0.00;;;0.00;;
16654;SDS011;8441;51.344;7.022;2023-05-21T14:39:37;0.00;;;0.00;;
16654;SDS011;8441;51.344;7.022;2023-05-21T14:42:06;0.00;;;0.00;;
16654;SDS011;8441;51.344;7.022;2023-05-21T14:44:33;0.00;;;0.00;;
16654;SDS011;8441;51.344;7.022;2023-05-21T14:47:00;0.00;;;0.00;;
16654;SDS011;8441;51.344;7.022;2023-05-21T14:49:28;0.00;;;0.00;;
16654;SDS011;8441;51.344;7.022;2023-05-21T14:51:55;0.00;;;0.00;;
16654;SDS011;8441;51.344;7.022;2023-05-21T14:54:22;0.00;;;0.00;;
16654;SDS011;8441;51.344;7.022;2023-05-21T14:56:49;0.00;;;0.00;;
16654;SDS011;8441;51.344;7.022;2023-05-21T14:59:18;0.00;;;0.00;;
16654;SDS011;8441;51.344;7.022;2023-05-21T15:01:45;0.10;;;0.10;;
16654;SDS011;8441;51.344;7.022;2023-05-21T15:04:12;0.00;;;0.00;;
16654;SDS011;8441;51.344;7.022;2023-05-21T15:06:39;0.00;;;0.00;;
16654;SDS011;8441;51.344;7.022;2023-05-21T15:09:07;0.08;;;0.08;;
16654;SDS011;8441;51.344;7.022;2023-05-21T15:11:34;0.00;;;0.00;;
16654;SDS011;8441;51.344;7.022;2023-05-21T15:14:03;0.00;;;0.00;;